createdAt,value
2018-07-10T00:02:19.385Z,99.90
2018-07-10T00:24:32.034Z,99.90
2018-07-10T00:27:00.914Z,99.90
2018-07-10T00:29:29.384Z,99.90
2018-07-10T00:31:57.888Z,99.90
2018-07-10T00:34:26.444Z,99.90
2018-07-10T00:36:55.077Z,99.90
2018-07-10T00:39:23.683Z,99.90
2018-07-10T00:41:52.203Z,99.90
2018-07-10T00:44:20.705Z,99.90
2018-07-10T00:46:49.338Z,99.90
2018-07-10T00:49:17.871Z,99.90
2018-07-10T00:51:46.419Z,99.90
2018-07-10T00:54:15.116Z,99.90
2018-07-10T00:56:43.673Z,99.90
2018-07-10T00:59:12.223Z,99.90
2018-07-10T01:01:40.747Z,99.90
2018-07-10T01:04:09.241Z,99.90
2018-07-10T01:06:37.782Z,99.90
2018-07-10T01:09:06.633Z,99.90
2018-07-10T01:11:35.164Z,99.90
2018-07-10T01:14:03.676Z,99.90
2018-07-10T01:16:35.198Z,99.90
2018-07-10T01:19:06.374Z,99.90
2018-07-10T01:21:34.922Z,99.90
2018-07-10T01:24:04.740Z,99.90
2018-07-10T01:26:35.818Z,99.90
2018-07-10T01:29:10.646Z,99.90
2018-07-10T01:31:40.303Z,99.90
2018-07-10T01:34:08.816Z,99.90
2018-07-10T01:36:37.351Z,99.90
2018-07-10T01:39:06.559Z,99.90
2018-07-10T01:41:35.490Z,99.90
2018-07-10T01:44:03.995Z,99.90
2018-07-10T01:46:32.532Z,99.90
2018-07-10T01:49:01.072Z,99.90
2018-07-10T01:51:30.612Z,99.90
2018-07-10T01:53:59.119Z,99.90
2018-07-10T01:56:27.650Z,99.90
2018-07-10T01:58:56.161Z,99.90
2018-07-10T02:01:24.734Z,99.90
2018-07-10T02:03:54.055Z,99.90
2018-07-10T02:06:22.574Z,99.90
2018-07-10T02:08:51.130Z,99.90
2018-07-10T02:11:19.637Z,99.90
2018-07-10T02:13:48.127Z,99.90
2018-07-10T02:16:16.610Z,99.90
2018-07-10T02:18:45.583Z,99.90
2018-07-10T02:21:14.129Z,99.90
2018-07-10T02:23:44.506Z,99.90
2018-07-10T02:26:20.416Z,99.90
2018-07-10T02:28:49.334Z,99.90
2018-07-10T02:31:17.853Z,99.90
2018-07-10T02:33:46.463Z,99.90
2018-07-10T02:36:15.033Z,99.90
2018-07-10T02:38:46.688Z,99.90
2018-07-10T02:41:19.323Z,99.90
2018-07-10T02:43:52.028Z,99.90
2018-07-10T02:46:20.700Z,99.90
2018-07-10T02:48:49.334Z,99.90
2018-07-10T02:51:17.904Z,99.90
2018-07-10T02:53:46.730Z,99.90
2018-07-10T02:56:17.083Z,99.90
2018-07-10T02:58:45.639Z,99.90
2018-07-10T03:01:14.178Z,99.90
2018-07-10T03:03:44.346Z,99.90
2018-07-10T03:06:13.186Z,99.90
2018-07-10T03:08:41.939Z,99.90
2018-07-10T03:11:10.488Z,99.90
2018-07-10T03:13:40.449Z,99.90
2018-07-10T03:16:08.966Z,99.90
2018-07-10T03:18:37.503Z,99.90
2018-07-10T03:21:06.054Z,99.90
2018-07-10T03:23:34.658Z,99.90
2018-07-10T03:26:03.171Z,99.90
2018-07-10T03:28:31.669Z,99.90
2018-07-10T03:31:00.408Z,99.90
2018-07-10T03:33:28.935Z,99.90
2018-07-10T03:35:57.446Z,99.90
2018-07-10T03:38:25.983Z,99.90
2018-07-10T03:40:54.524Z,99.90
2018-07-10T03:43:23.259Z,99.90
2018-07-10T03:45:51.787Z,99.90
2018-07-10T03:48:20.800Z,99.90
2018-07-10T03:50:49.312Z,99.90
2018-07-10T03:53:18.343Z,99.90
2018-07-10T03:55:46.926Z,99.90
2018-07-10T03:58:15.465Z,99.90
2018-07-10T04:00:44.017Z,99.90
2018-07-10T04:03:13.138Z,99.90
2018-07-10T04:05:41.686Z,99.90
2018-07-10T04:10:38.422Z,99.90
2018-07-10T04:13:13.429Z,99.90
2018-07-10T04:15:43.782Z,99.90
2018-07-10T04:18:13.870Z,99.90
2018-07-10T04:21:48.850Z,99.90
2018-07-10T04:24:19.262Z,99.90
2018-07-10T04:28:02.008Z,99.90
2018-07-10T04:31:07.947Z,99.90
2018-07-10T04:33:36.488Z,99.90
2018-07-10T04:36:05.082Z,99.90
2018-07-10T04:38:33.707Z,99.90
2018-07-10T04:41:06.906Z,99.90
2018-07-10T04:43:35.496Z,99.90
2018-07-10T04:46:04.037Z,99.90
2018-07-10T04:48:39.325Z,99.90
2018-07-10T04:51:18.220Z,99.90
2018-07-10T04:53:52.033Z,99.90
2018-07-10T04:56:20.643Z,99.90
2018-07-10T04:58:55.031Z,99.90
2018-07-10T05:01:30.014Z,99.90
2018-07-10T05:04:00.122Z,99.90
2018-07-10T05:06:28.923Z,99.90
2018-07-10T05:08:57.544Z,99.90
2018-07-10T05:11:26.150Z,99.90
2018-07-10T05:13:54.690Z,99.90
2018-07-10T05:16:23.241Z,99.90
2018-07-10T05:18:51.803Z,99.90
2018-07-10T05:21:20.353Z,99.90
2018-07-10T05:23:49.078Z,99.90
2018-07-10T05:26:18.023Z,99.90
2018-07-10T05:28:50.791Z,99.90
2018-07-10T05:31:19.261Z,99.90
2018-07-10T05:33:50.319Z,99.90
2018-07-10T05:36:20.789Z,99.90
2018-07-10T05:38:54.982Z,99.90
2018-07-10T05:41:23.521Z,99.90
2018-07-10T05:43:53.468Z,99.90
2018-07-10T05:46:24.428Z,99.90
2018-07-10T05:49:00.667Z,99.90
2018-07-10T05:51:34.324Z,99.90
2018-07-10T05:54:05.849Z,99.90
2018-07-10T05:56:34.391Z,99.90
2018-07-10T05:59:04.519Z,99.90
2018-07-10T06:01:33.816Z,99.90
2018-07-10T06:04:02.542Z,99.90
2018-07-10T06:06:31.047Z,99.90
2018-07-10T06:08:59.620Z,99.90
2018-07-10T06:11:28.179Z,99.90
2018-07-10T06:13:57.081Z,99.90
2018-07-10T06:16:25.705Z,99.90
2018-07-10T06:18:56.077Z,99.90
2018-07-10T06:21:32.398Z,99.90
2018-07-10T06:24:07.674Z,99.90
2018-07-10T06:26:39.032Z,99.90
2018-07-10T06:29:07.759Z,99.90
2018-07-10T06:31:46.033Z,99.90
2018-07-10T06:34:14.911Z,99.90
2018-07-10T06:36:51.755Z,99.90
2018-07-10T06:39:20.343Z,99.90
2018-07-10T06:41:51.780Z,99.90
2018-07-10T06:44:22.037Z,99.90
2018-07-10T06:46:56.626Z,99.90
2018-07-10T06:49:33.307Z,99.90
2018-07-10T06:52:08.138Z,99.90
2018-07-10T06:54:50.166Z,99.90
2018-07-10T06:57:19.266Z,99.90
2018-07-10T06:59:47.782Z,99.90
2018-07-10T07:02:16.306Z,99.90
2018-07-10T07:04:44.828Z,99.90
2018-07-10T07:07:13.414Z,99.90
2018-07-10T07:09:43.027Z,99.90
2018-07-10T07:12:11.543Z,99.90
2018-07-10T07:14:40.059Z,99.90
2018-07-10T07:17:08.545Z,99.90
2018-07-10T07:19:37.114Z,99.90
2018-07-10T07:22:05.962Z,99.90
2018-07-10T07:24:34.706Z,99.90
2018-07-10T07:27:03.292Z,99.90
2018-07-10T07:29:31.858Z,99.90
2018-07-10T07:32:00.408Z,99.90
2018-07-10T07:34:29.016Z,99.90
2018-07-10T07:36:57.638Z,99.90
2018-07-10T07:39:26.227Z,99.90
2018-07-10T07:41:54.758Z,99.90
2018-07-10T07:44:23.333Z,99.90
2018-07-10T07:46:51.916Z,99.90
2018-07-10T07:49:20.752Z,99.90
2018-07-10T07:51:49.369Z,99.90
2018-07-10T07:54:18.059Z,99.90
2018-07-10T07:56:46.593Z,99.90
2018-07-10T07:59:15.140Z,99.90
2018-07-10T08:01:43.681Z,99.90
2018-07-10T08:04:12.261Z,99.90
2018-07-10T08:06:40.942Z,99.90
2018-07-10T08:09:10.145Z,99.90
2018-07-10T08:11:38.772Z,99.90
2018-07-10T08:14:07.329Z,99.90
2018-07-10T08:16:35.841Z,99.90
2018-07-10T08:19:04.939Z,99.90
2018-07-10T08:21:33.603Z,99.90
2018-07-10T08:24:02.998Z,99.90
2018-07-10T08:26:31.544Z,99.90
2018-07-10T08:29:00.123Z,99.90
2018-07-10T08:31:28.631Z,99.90
2018-07-10T08:33:57.472Z,99.90
2018-07-10T08:36:25.955Z,99.90
2018-07-10T08:38:54.601Z,99.90
2018-07-10T08:41:24.168Z,99.90
2018-07-10T08:43:53.344Z,99.90
2018-07-10T08:46:29.952Z,99.90
2018-07-10T08:48:59.083Z,99.90
2018-07-10T08:51:27.618Z,99.90
2018-07-10T08:53:56.397Z,99.90
2018-07-10T08:56:25.299Z,99.90
2018-07-10T08:58:54.048Z,99.90
2018-07-10T09:01:22.882Z,99.90
2018-07-10T09:03:51.614Z,99.90
2018-07-10T09:06:20.253Z,99.90
2018-07-10T09:08:48.939Z,99.90
2018-07-10T09:11:17.588Z,99.90
2018-07-10T09:13:46.413Z,99.90
2018-07-10T09:16:14.964Z,99.90
2018-07-10T09:18:43.495Z,99.90
2018-07-10T09:21:12.002Z,99.90
2018-07-10T09:23:40.529Z,99.90
2018-07-10T09:26:09.148Z,99.90
2018-07-10T09:28:38.466Z,99.90
2018-07-10T09:31:07.650Z,99.90
2018-07-10T09:33:36.690Z,99.90
2018-07-10T09:36:05.668Z,99.90
2018-07-10T09:38:36.328Z,99.90
2018-07-10T09:41:06.497Z,99.90
2018-07-10T09:43:36.191Z,99.90
2018-07-10T09:46:04.961Z,99.90
2018-07-10T09:48:33.501Z,99.90
2018-07-10T09:51:02.142Z,99.90
2018-07-10T09:53:31.046Z,99.90
2018-07-10T09:55:59.628Z,99.90
2018-07-10T09:58:28.205Z,99.90
2018-07-10T10:01:04.762Z,99.90
2018-07-10T10:03:33.643Z,99.90
2018-07-10T10:06:02.482Z,99.90
2018-07-10T10:08:31.008Z,99.90
2018-07-10T10:10:59.526Z,99.10
2018-07-10T10:13:28.090Z,99.30
2018-07-10T10:15:56.746Z,99.00
2018-07-10T10:18:26.354Z,98.30
2018-07-10T10:20:54.885Z,97.20
2018-07-10T10:23:23.550Z,97.20
2018-07-10T10:25:52.688Z,96.60
2018-07-10T10:28:23.150Z,96.60
2018-07-10T10:30:51.792Z,97.70
2018-07-10T10:33:20.427Z,98.50
2018-07-10T10:35:49.072Z,98.80
2018-07-10T10:38:18.305Z,97.70
2018-07-10T10:40:48.834Z,97.90
2018-07-10T10:43:17.515Z,98.60
2018-07-10T10:45:46.069Z,97.90
2018-07-10T10:48:15.474Z,98.80
2018-07-10T10:50:49.124Z,98.40
2018-07-10T10:53:18.624Z,96.30
2018-07-10T10:55:47.259Z,97.00
2018-07-10T10:58:15.984Z,96.70
2018-07-10T11:00:44.479Z,95.80
2018-07-10T11:03:13.117Z,96.10
2018-07-10T11:05:44.035Z,95.10
2018-07-10T11:08:12.822Z,95.00
2018-07-10T11:10:42.457Z,94.40
2018-07-10T11:13:12.356Z,93.00
2018-07-10T11:15:43.834Z,93.60
2018-07-10T11:18:17.415Z,93.60
2018-07-10T11:21:03.409Z,94.20
2018-07-10T11:23:43.493Z,93.80
2018-07-10T11:28:40.379Z,94.50
2018-07-10T11:31:09.113Z,96.00
2018-07-10T11:33:37.670Z,95.80
2018-07-10T11:36:06.186Z,95.50
2018-07-10T11:38:34.730Z,94.80
2018-07-10T11:41:03.347Z,94.00
2018-07-10T11:43:31.889Z,94.20
2018-07-10T11:46:00.443Z,93.90
2018-07-10T11:48:29.034Z,92.30
2018-07-10T11:50:57.541Z,93.60
2018-07-10T11:53:26.136Z,91.70
2018-07-10T11:55:54.671Z,92.50
2018-07-10T11:58:23.285Z,93.80
2018-07-10T12:00:51.833Z,93.50
2018-07-10T12:03:20.853Z,93.80
2018-07-10T12:22:40.012Z,94.90
2018-07-10T12:25:09.180Z,92.30
2018-07-10T12:27:37.731Z,94.20
2018-07-10T12:30:07.975Z,95.00
2018-07-10T12:32:37.958Z,97.10
2018-07-10T12:35:07.330Z,97.80
2018-07-10T12:37:37.849Z,97.40
2018-07-10T12:40:06.413Z,97.60
2018-07-10T12:42:35.567Z,97.70
2018-07-10T12:45:04.175Z,99.50
2018-07-10T12:47:33.040Z,98.40
2018-07-10T12:50:01.926Z,97.50
2018-07-10T12:52:31.512Z,97.30
2018-07-10T12:55:00.841Z,97.40
2018-07-10T12:57:33.372Z,99.30
2018-07-10T13:00:03.148Z,99.90
2018-07-10T13:02:32.553Z,99.90
2018-07-10T13:05:01.586Z,99.90
2018-07-10T13:07:30.159Z,99.90
2018-07-10T13:09:58.757Z,99.90
2018-07-10T13:12:27.400Z,99.90
2018-07-10T13:14:56.068Z,99.90
2018-07-10T13:19:53.175Z,99.90
2018-07-10T13:22:21.858Z,99.90
2018-07-10T13:24:50.610Z,99.90
2018-07-10T13:27:19.251Z,99.90
2018-07-10T13:29:48.104Z,99.90
2018-07-10T13:32:16.678Z,99.90
2018-07-10T13:34:45.326Z,99.90
2018-07-10T13:37:14.029Z,99.90
2018-07-10T13:39:43.093Z,99.90
2018-07-10T13:42:11.719Z,99.90
2018-07-10T13:44:40.899Z,99.90
2018-07-10T13:47:09.647Z,99.90
2018-07-10T13:49:38.589Z,99.90
2018-07-10T13:52:07.510Z,99.90
2018-07-10T13:54:36.113Z,99.90
2018-07-10T13:57:04.892Z,99.90
2018-07-10T13:59:33.444Z,99.90
2018-07-10T14:02:02.201Z,99.90
2018-07-10T14:04:30.739Z,99.90
2018-07-10T14:06:59.494Z,99.90
2018-07-10T14:09:28.209Z,99.90
2018-07-10T14:11:56.847Z,99.90
2018-07-10T14:14:25.462Z,99.90
2018-07-10T14:16:54.233Z,99.90
2018-07-10T14:19:22.895Z,99.90
2018-07-10T14:21:51.534Z,99.90
2018-07-10T14:24:20.187Z,99.90
2018-07-10T14:26:48.980Z,99.90
2018-07-10T14:29:17.728Z,99.90
2018-07-10T14:31:46.422Z,99.90
2018-07-10T14:34:15.147Z,99.90
2018-07-10T14:36:43.773Z,99.90
2018-07-10T14:39:12.412Z,99.90
2018-07-10T14:41:41.082Z,99.90
2018-07-10T14:44:10.590Z,99.90
2018-07-10T14:46:39.313Z,99.90
2018-07-10T14:49:08.005Z,99.90
2018-07-10T14:51:43.035Z,99.90
2018-07-10T14:54:12.198Z,99.90
2018-07-10T14:56:41.628Z,99.90
2018-07-10T14:59:10.916Z,99.90
2018-07-10T15:01:40.587Z,99.90
2018-07-10T15:04:09.608Z,99.90
2018-07-10T15:06:38.346Z,99.90
2018-07-10T15:09:08.310Z,99.90
2018-07-10T15:11:37.113Z,99.90
2018-07-10T15:14:08.170Z,99.90
2018-07-10T15:16:42.180Z,99.90
2018-07-10T15:19:10.841Z,99.90
2018-07-10T15:21:40.448Z,99.90
2018-07-10T15:24:09.723Z,99.90
2018-07-10T15:26:38.371Z,99.90
2018-07-10T15:29:07.024Z,99.90
2018-07-10T15:31:35.755Z,99.90
2018-07-10T15:34:04.443Z,99.90
2018-07-10T15:36:33.204Z,99.90
2018-07-10T15:39:04.991Z,99.90
2018-07-10T15:41:33.672Z,99.90
2018-07-10T15:44:02.494Z,99.90
2018-07-10T15:46:31.194Z,99.90
2018-07-10T15:48:59.745Z,99.90
2018-07-10T15:51:28.362Z,99.90
2018-07-10T15:53:57.485Z,99.90
2018-07-10T15:56:26.195Z,99.90
2018-07-10T15:58:54.947Z,99.90
2018-07-10T16:01:23.600Z,99.90
2018-07-10T16:03:52.510Z,99.90
2018-07-10T16:06:21.249Z,99.90
2018-07-10T16:08:50.044Z,99.90
2018-07-10T16:11:18.609Z,99.90
2018-07-10T16:13:47.560Z,99.90
2018-07-10T16:16:18.061Z,99.90
2018-07-10T16:18:53.264Z,99.90
2018-07-10T16:21:21.945Z,99.90
2018-07-10T16:23:50.663Z,99.90
2018-07-10T16:26:22.717Z,99.90
2018-07-10T16:28:52.322Z,99.90
2018-07-10T16:31:21.931Z,99.90
2018-07-10T16:33:50.527Z,99.90
2018-07-10T16:36:46.292Z,99.90
2018-07-10T16:39:15.149Z,99.90
2018-07-10T16:41:49.574Z,99.90
2018-07-10T16:44:18.279Z,99.90
2018-07-10T16:47:54.318Z,99.90
2018-07-10T16:50:25.012Z,99.90
2018-07-10T16:53:18.070Z,99.90
2018-07-10T16:55:46.842Z,99.90
2018-07-10T16:58:15.525Z,99.90
2018-07-10T17:00:44.126Z,99.90
2018-07-10T17:03:12.950Z,99.90
2018-07-10T17:05:41.655Z,99.90
2018-07-10T17:08:10.307Z,99.90
2018-07-10T17:10:39.037Z,99.90
2018-07-10T17:13:07.765Z,99.90
2018-07-10T17:15:36.701Z,99.90
2018-07-10T17:18:05.458Z,99.90
2018-07-10T17:20:34.169Z,99.90
2018-07-10T17:23:02.882Z,99.90
2018-07-10T17:25:31.586Z,99.90
2018-07-10T17:28:00.315Z,99.90
2018-07-10T17:30:29.172Z,99.90
2018-07-10T17:32:57.808Z,99.90
2018-07-10T17:35:26.488Z,99.90
2018-07-10T17:37:55.445Z,99.90
2018-07-10T17:40:24.199Z,99.90
2018-07-10T17:42:52.888Z,99.90
2018-07-10T17:45:23.610Z,99.90
2018-07-10T17:47:52.348Z,99.90
2018-07-10T17:50:21.778Z,99.90
2018-07-10T17:52:50.804Z,99.90
2018-07-10T17:55:21.073Z,99.90
2018-07-10T17:58:06.589Z,99.90
2018-07-10T18:00:35.808Z,99.90
2018-07-10T18:03:04.421Z,99.90
2018-07-10T18:05:33.085Z,99.90
2018-07-10T18:08:01.717Z,99.90
2018-07-10T18:10:30.276Z,99.90
2018-07-10T18:12:58.950Z,99.90
2018-07-10T18:15:27.623Z,99.90
2018-07-10T18:17:56.321Z,99.90
2018-07-10T18:20:25.372Z,99.90
2018-07-10T18:22:54.216Z,99.90
2018-07-10T18:25:22.838Z,99.90
2018-07-10T18:27:51.846Z,99.90
2018-07-10T18:30:20.628Z,99.90
2018-07-10T18:32:49.431Z,99.90
2018-07-10T18:35:18.434Z,99.90
2018-07-10T18:37:47.413Z,99.90
2018-07-10T18:40:16.189Z,99.90
2018-07-10T18:42:44.943Z,99.90
2018-07-10T18:45:13.602Z,99.90
2018-07-10T18:47:42.287Z,99.90
2018-07-10T18:50:11.100Z,99.90
2018-07-10T18:52:40.167Z,99.90
2018-07-10T18:55:08.785Z,99.90
2018-07-10T18:59:50.142Z,99.90
2018-07-10T19:02:58.096Z,99.90
2018-07-10T19:05:26.722Z,99.90
2018-07-10T19:07:55.695Z,99.90
2018-07-10T19:10:24.409Z,99.90
2018-07-10T19:12:52.898Z,99.90
2018-07-10T19:15:21.835Z,99.90
2018-07-10T19:17:50.619Z,99.90
2018-07-10T19:20:19.269Z,99.90
2018-07-10T19:22:58.863Z,99.90
2018-07-10T19:25:27.436Z,99.90
2018-07-10T19:27:59.160Z,99.90
2018-07-10T19:31:35.023Z,99.90
2018-07-10T19:34:03.950Z,99.90
2018-07-10T19:36:32.947Z,99.90
2018-07-10T19:39:05.034Z,99.90
2018-07-10T19:41:33.667Z,99.90
2018-07-10T19:44:02.497Z,99.90
2018-07-10T19:46:33.813Z,99.90
2018-07-10T19:49:04.384Z,99.90
2018-07-10T19:51:32.998Z,99.90
2018-07-10T19:54:08.831Z,99.90
2018-07-10T19:56:37.686Z,99.90
2018-07-10T19:59:07.531Z,99.90
2018-07-10T20:01:43.962Z,99.90
2018-07-10T20:04:50.572Z,99.90
2018-07-10T20:07:22.776Z,99.90
2018-07-10T20:09:58.612Z,99.90
2018-07-10T20:12:39.081Z,99.90
2018-07-10T20:15:16.066Z,99.90
2018-07-10T20:17:58.282Z,99.90
2018-07-10T20:20:29.291Z,99.90
2018-07-10T20:25:14.938Z,99.90
2018-07-10T20:27:54.260Z,99.90
2018-07-10T20:30:31.431Z,99.90
2018-07-10T20:33:06.689Z,99.90
2018-07-10T20:35:35.280Z,99.90
2018-07-10T20:38:03.830Z,99.90
2018-07-10T20:40:35.003Z,99.90
2018-07-10T20:43:06.965Z,99.90
2018-07-10T20:45:56.370Z,99.90
2018-07-10T20:48:40.255Z,99.90
2018-07-10T20:51:10.715Z,99.90
2018-07-10T20:53:44.950Z,99.90
2018-07-10T20:56:19.421Z,99.90
2018-07-10T20:58:54.069Z,99.90
2018-07-10T21:01:29.118Z,99.90
2018-07-10T21:04:01.301Z,99.90
2018-07-10T21:06:36.352Z,99.90
2018-07-10T21:09:11.826Z,99.90
2018-07-10T21:12:15.165Z,99.90
2018-07-10T21:15:07.984Z,99.90
2018-07-10T21:17:49.873Z,99.90
2018-07-10T21:22:36.631Z,99.90
2018-07-10T21:25:07.752Z,99.90
2018-07-10T21:28:45.977Z,99.90
2018-07-10T21:31:25.846Z,99.90
2018-07-10T21:35:01.591Z,99.90
2018-07-10T21:38:09.215Z,99.90
2018-07-10T22:00:11.436Z,99.90
2018-07-10T22:02:40.021Z,99.90
2018-07-10T22:05:08.523Z,99.90
2018-07-10T22:07:37.083Z,99.90
2018-07-10T22:10:07.156Z,99.90
2018-07-10T22:12:43.159Z,99.90
2018-07-10T22:15:12.205Z,99.90
2018-07-10T22:17:40.759Z,99.90
2018-07-10T22:20:09.354Z,99.90
2018-07-10T22:22:37.902Z,99.90
2018-07-10T22:25:07.969Z,99.90
2018-07-10T22:27:39.999Z,99.90
2018-07-10T22:30:15.422Z,99.90
2018-07-10T22:32:49.416Z,99.90
2018-07-10T22:35:17.970Z,99.90
2018-07-10T22:37:46.508Z,99.90
2018-07-10T22:40:16.429Z,99.90
2018-07-10T22:42:44.969Z,99.90
2018-07-10T22:45:13.514Z,99.90
2018-07-10T22:47:42.844Z,99.90
2018-07-10T22:50:19.994Z,99.90
2018-07-10T22:52:52.751Z,99.90
2018-07-10T22:55:24.263Z,99.90
2018-07-10T22:57:53.339Z,99.90
2018-07-10T23:00:28.205Z,99.90
2018-07-10T23:02:56.845Z,99.90
2018-07-10T23:05:25.597Z,99.90
2018-07-10T23:07:54.249Z,99.90
2018-07-10T23:10:23.181Z,99.90
2018-07-10T23:12:51.993Z,99.90
2018-07-10T23:15:20.570Z,99.90
2018-07-10T23:17:49.362Z,99.90
2018-07-10T23:20:18.020Z,99.90
2018-07-10T23:22:54.295Z,99.90
2018-07-10T23:25:24.428Z,99.90
2018-07-10T23:28:00.000Z,99.90
2018-07-10T23:30:30.372Z,99.90
2018-07-10T23:35:27.332Z,99.90
2018-07-10T23:37:57.523Z,99.90
2018-07-10T23:40:26.096Z,99.90
2018-07-10T23:42:54.746Z,99.90
2018-07-10T23:45:26.310Z,99.90
2018-07-10T23:47:57.688Z,99.90
2018-07-10T23:50:28.096Z,99.90
2018-07-10T23:54:09.202Z,99.90
2018-07-10T23:56:37.744Z,99.90
2018-07-10T23:59:06.284Z,99.90
